Time;durP1;ratioP1;P1;durP2;ratioP2;P2;SDS_P1;SDS_P2;PMS_P1;PMS_P2;Temp;Humidity;BMP_temperature;BMP_pressure;BME280_temperature;BME280_humidity;BME280_pressure;Samples;Min_cycle;Max_cycle;Signal;HPM_P1;HPM_P2
2022/12/09 00:01:29;;;;;;;2.58;1.27;;;3.50;92.50;;;;;;5905156;24;20019;-78
2022/12/09 00:03:55;;;;;;;2.13;1.30;;;3.50;92.50;;;;;;5904333;24;20017;-79
2022/12/09 00:06:24;;;;;;;2.53;1.33;;;3.60;92.50;;;;;;5904375;24;20013;-77
2022/12/09 00:08:50;;;;;;;2.30;1.25;;;3.50;92.50;;;;;;5927590;24;20092;-78
2022/12/09 00:11:17;;;;;;;1.95;1.20;;;3.50;92.50;;;;;;5927798;24;20013;-79
2022/12/09 00:13:47;;;;;;;1.92;1.13;;;3.50;92.50;;;;;;5924844;24;20032;-78
2022/12/09 00:16:13;;;;;;;3.10;1.30;;;3.70;92.50;;;;;;5987931;23;20008;-77
2022/12/09 00:18:39;;;;;;;1.92;1.25;;;3.50;92.50;;;;;;6025078;23;20012;-78
2022/12/09 00:21:23;;;;;;;2.58;1.30;;;3.60;92.50;;;;;;6055192;23;20448;-79
2022/12/09 00:23:53;;;;;;;2.90;1.50;;;3.50;92.50;;;;;;6037468;23;20019;-80
2022/12/09 00:26:21;;;;;;;2.78;1.30;;;3.40;92.50;;;;;;6063398;23;20066;-79
2022/12/09 00:28:48;;;;;;;2.92;1.58;;;3.50;92.50;;;;;;6063430;23;20049;-79
2022/12/09 00:34:23;;;;;;;2.55;1.15;;;3.50;92.50;;;;;;6072581;23;20022;-76
2022/12/09 00:36:49;;;;;;;2.17;1.35;;;3.50;92.50;;;;;;6044493;23;20130;-78
2022/12/09 00:39:15;;;;;;;1.95;1.13;;;3.50;92.50;;;;;;6045047;23;20026;-78
2022/12/09 00:41:43;;;;;;;3.28;1.50;;;3.50;92.50;;;;;;6068584;23;20018;-76
2022/12/09 00:44:12;;;;;;;1.70;1.02;;;3.50;92.50;;;;;;6092423;23;20388;-79
2022/12/09 00:46:40;;;;;;;1.80;1.20;;;3.50;92.50;;;;;;6068152;23;20022;-79
2022/12/09 00:49:09;;;;;;;2.65;1.25;;;3.60;92.50;;;;;;6039316;23;20456;-77
2022/12/09 00:51:34;;;;;;;2.90;1.25;;;3.50;92.40;;;;;;6027162;23;20007;-76
2022/12/09 00:54:00;;;;;;;2.17;1.20;;;3.40;92.40;;;;;;6092323;23;20021;-75
2022/12/09 00:56:27;;;;;;;2.45;1.33;;;3.60;92.50;;;;;;6067739;23;20333;-75
2022/12/09 00:58:53;;;;;;;1.77;1.08;;;3.60;92.50;;;;;;6067908;23;20086;-76
2022/12/09 01:01:19;;;;;;;2.53;1.40;;;3.60;92.40;;;;;;6068058;23;20478;-76
2022/12/09 01:03:45;;;;;;;1.77;1.05;;;3.60;92.50;;;;;;6067512;23;20022;-76
2022/12/09 01:06:16;;;;;;;2.40;1.20;;;3.60;92.50;;;;;;6107171;23;20029;-76
2022/12/09 01:08:42;;;;;;;3.03;1.40;;;3.60;92.40;;;;;;6153249;23;21324;-75
2022/12/09 01:11:11;;;;;;;1.85;1.10;;;3.60;92.70;;;;;;6182362;23;20004;-75
2022/12/09 01:13:37;;;;;;;2.15;1.20;;;3.50;92.40;;;;;;6155825;23;19997;-77
2022/12/09 01:16:03;;;;;;;2.47;1.33;;;3.60;92.40;;;;;;6182200;23;20003;-75
2022/12/09 01:18:28;;;;;;;2.38;1.10;;;3.50;92.40;;;;;;6182415;23;20393;-75
2022/12/09 01:20:57;;;;;;;3.45;1.50;;;3.60;92.40;;;;;;6181939;23;20009;-76
2022/12/09 01:23:22;;;;;;;3.55;1.50;;;3.50;92.40;;;;;;6153316;23;20003;-77
2022/12/09 01:25:48;;;;;;;2.20;1.30;;;3.60;92.40;;;;;;6182273;23;20387;-76
2022/12/09 01:28:13;;;;;;;2.92;1.50;;;3.70;92.50;;;;;;6154378;23;20055;-75
2022/12/09 01:30:39;;;;;;;2.38;1.40;;;3.60;92.40;;;;;;6184231;23;19997;-75
2022/12/09 01:33:05;;;;;;;4.15;1.80;;;3.60;92.40;;;;;;6183911;23;20051;-75
2022/12/09 01:35:31;;;;;;;2.50;1.33;;;3.60;92.40;;;;;;6183997;23;20012;-78
2022/12/09 01:37:56;;;;;;;3.22;1.40;;;3.60;92.40;;;;;;6157767;23;20017;-75
2022/12/09 01:40:22;;;;;;;2.75;1.45;;;3.50;92.40;;;;;;6184243;23;20108;-77
2022/12/09 01:42:50;;;;;;;3.42;1.65;;;3.50;92.50;;;;;;6154070;23;20004;-75
2022/12/09 01:45:37;;;;;;;3.30;1.60;;;3.50;92.50;;;;;;6184183;23;20016;-75
2022/12/09 01:48:10;;;;;;;2.88;1.40;;;3.50;92.50;;;;;;6157420;23;20005;-75
2022/12/09 01:50:38;;;;;;;2.47;1.35;;;3.60;92.50;;;;;;6184128;23;20001;-75
2022/12/09 01:53:05;;;;;;;2.22;1.30;;;3.60;92.40;;;;;;6183816;23;20001;-76
2022/12/09 01:55:32;;;;;;;3.25;1.67;;;3.60;92.40;;;;;;6183840;23;20064;-76
2022/12/09 01:57:58;;;;;;;2.78;1.40;;;3.60;92.40;;;;;;6183217;23;20004;-75
2022/12/09 02:00:24;;;;;;;2.10;1.30;;;3.60;92.40;;;;;;6183904;23;20012;-75
2022/12/09 02:02:50;;;;;;;3.13;1.35;;;3.50;92.40;;;;;;6183643;23;20005;-76
2022/12/09 02:05:17;;;;;;;2.03;1.25;;;3.50;92.40;;;;;;6183912;23;20013;-77
2022/12/09 02:07:43;;;;;;;2.83;1.33;;;3.60;92.40;;;;;;6183567;23;20001;-76
2022/12/09 02:10:13;;;;;;;3.00;1.40;;;3.60;92.40;;;;;;6156680;23;20303;-75
2022/12/09 02:12:52;;;;;;;2.42;1.38;;;3.60;92.40;;;;;;6180135;23;20001;-76
2022/12/09 02:15:29;;;;;;;2.20;1.17;;;3.50;92.40;;;;;;6130078;23;20010;-76
2022/12/09 02:18:01;;;;;;;2.92;1.40;;;3.60;92.40;;;;;;6181244;23;20005;-75
2022/12/09 02:20:43;;;;;;;;;;;3.60;92.40;;;;;;6182154;23;20005;-75
2022/12/09 02:23:24;;;;;;;2.17;1.33;;;3.60;92.40;;;;;;6180441;23;19900;-75
2022/12/09 02:25:56;;;;;;;3.25;1.70;;;3.50;92.40;;;;;;6182210;23;20009;-75
2022/12/09 02:28:44;;;;;;;1.42;0.90;;;3.60;92.40;;;;;;6183998;23;20405;-75
2022/12/09 02:31:28;;;;;;;3.28;1.52;;;3.60;92.40;;;;;;6183356;23;20372;-75
2022/12/09 02:34:09;;;;;;;3.80;1.65;;;3.50;92.40;;;;;;6183851;23;20017;-75
2022/12/09 02:36:50;;;;;;;3.15;1.40;;;3.50;92.40;;;;;;6106863;23;20096;-75
2022/12/09 02:39:20;;;;;;;2.63;1.38;;;3.50;92.40;;;;;;6183543;23;20001;-75
2022/12/09 02:41:48;;;;;;;3.67;1.40;;;3.60;92.50;;;;;;6153523;23;20307;-75
2022/12/09 02:44:16;;;;;;;3.35;1.48;;;3.40;92.40;;;;;;6183216;23;20041;-75
2022/12/09 02:46:42;;;;;;;2.40;1.33;;;3.50;92.50;;;;;;6183609;23;20009;-75
2022/12/09 02:49:09;;;;;;;2.38;1.17;;;3.40;92.40;;;;;;6180887;23;20005;-75
2022/12/09 02:51:40;;;;;;;2.25;1.27;;;3.30;92.40;;;;;;6183605;23;20051;-77
2022/12/09 02:54:10;;;;;;;1.90;1.10;;;3.40;92.50;;;;;;6133594;23;20010;-77
2022/12/09 02:56:37;;;;;;;2.65;1.35;;;3.30;92.50;;;;;;6183394;23;20444;-77
2022/12/09 02:59:03;;;;;;;1.77;1.05;;;3.40;92.50;;;;;;6183896;23;20060;-75
2022/12/09 03:01:44;;;;;;;2.47;1.30;;;3.40;92.50;;;;;;6183326;23;19996;-78
2022/12/09 03:04:19;;;;;;;2.45;1.20;;;3.40;92.60;;;;;;6129352;23;20036;-78
2022/12/09 03:06:52;;;;;;;2.35;1.20;;;3.30;92.60;;;;;;6183440;23;20132;-77
2022/12/09 03:09:24;;;;;;;2.08;1.30;;;3.30;92.50;;;;;;6183702;23;19997;-77
2022/12/09 03:11:51;;;;;;;2.40;1.10;;;3.40;92.80;;;;;;6182747;23;20425;-77
2022/12/09 03:14:24;;;;;;;2.42;1.08;;;3.30;92.50;;;;;;6183646;23;20105;-77
2022/12/09 03:16:58;;;;;;;2.90;1.40;;;3.20;92.50;;;;;;6150051;23;20032;-77
2022/12/09 03:19:33;;;;;;;3.75;1.60;;;3.30;92.50;;;;;;6131648;23;20326;-77
2022/12/09 03:22:10;;;;;;;3.13;1.50;;;3.30;92.50;;;;;;6182685;23;20039;-77
2022/12/09 03:24:41;;;;;;;1.80;1.00;;;3.30;92.50;;;;;;6156187;23;20016;-77
2022/12/09 03:27:08;;;;;;;;;;;3.30;92.50;;;;;;6156953;23;20469;-77
2022/12/09 03:29:38;;;;;;;2.85;1.25;;;3.30;92.50;;;;;;6183142;23;20340;-77
2022/12/09 03:32:04;;;;;;;1.67;0.95;;;3.40;92.50;;;;;;6156121;23;20001;-77
2022/12/09 03:34:35;;;;;;;1.83;1.08;;;3.30;92.50;;;;;;6183147;23;20068;-77
2022/12/09 03:37:03;;;;;;;2.83;1.35;;;3.30;92.50;;;;;;6182901;23;20036;-77
2022/12/09 03:39:33;;;;;;;2.33;1.10;;;3.30;92.50;;;;;;6182789;23;20079;-77
2022/12/09 03:42:02;;;;;;;2.10;1.20;;;3.20;92.50;;;;;;6130258;23;20006;-77
2022/12/09 03:44:48;;;;;;;2.55;1.35;;;3.40;92.50;;;;;;6182493;23;20021;-77
2022/12/09 03:47:14;;;;;;;2.85;1.33;;;3.30;92.50;;;;;;6182553;23;20029;-77
2022/12/09 03:49:40;;;;;;;2.63;1.20;;;3.30;92.50;;;;;;6182414;23;20322;-77
2022/12/09 03:52:19;;;;;;;1.88;1.05;;;3.20;92.50;;;;;;6182897;23;20076;-77
2022/12/09 03:54:49;;;;;;;2.67;1.25;;;3.20;92.50;;;;;;6182985;23;20005;-77
2022/12/09 03:57:17;;;;;;;2.72;1.20;;;3.20;92.50;;;;;;6182600;23;20055;-77
2022/12/09 03:59:50;;;;;;;2.47;1.20;;;3.20;92.50;;;;;;6157133;23;20349;-77
2022/12/09 04:02:15;;;;;;;2.03;1.20;;;3.20;92.50;;;;;;6156076;23;20012;-77
2022/12/09 04:04:41;;;;;;;1.77;1.00;;;3.20;92.50;;;;;;6183020;23;20021;-77
2022/12/09 04:07:07;;;;;;;2.30;1.15;;;3.10;92.50;;;;;;6156832;23;20111;-77
2022/12/09 04:09:33;;;;;;;2.22;1.17;;;3.10;92.50;;;;;;6182936;23;20009;-77
2022/12/09 04:11:59;;;;;;;2.58;1.38;;;3.10;92.50;;;;;;6182898;23;20007;-77
2022/12/09 04:14:24;;;;;;;3.00;1.23;;;3.10;92.50;;;;;;6183445;23;20028;-77
2022/12/09 04:16:50;;;;;;;2.20;1.27;;;3.00;92.50;;;;;;6131378;23;20442;-77
2022/12/09 04:19:16;;;;;;;1.90;1.00;;;3.20;92.60;;;;;;6183193;23;20013;-77
2022/12/09 04:21:42;;;;;;;2.13;1.13;;;3.00;92.60;;;;;;6182852;23;20052;-77
2022/12/09 04:24:08;;;;;;;2.45;1.08;;;3.00;92.60;;;;;;6183165;23;20013;-77
2022/12/09 04:26:34;;;;;;;2.35;1.10;;;3.00;92.60;;;;;;6130137;23;20005;-77
2022/12/09 04:28:59;;;;;;;2.65;1.10;;;2.90;92.60;;;;;;6183436;23;20313;-77
2022/12/09 04:31:25;;;;;;;1.60;1.10;;;2.90;92.60;;;;;;6182826;23;20001;-77
2022/12/09 04:33:51;;;;;;;2.35;1.25;;;2.90;92.60;;;;;;6134452;23;20333;-77
2022/12/09 04:36:18;;;;;;;2.67;1.10;;;2.90;92.60;;;;;;6182758;23;20008;-77
2022/12/09 04:38:44;;;;;;;2.90;1.55;;;2.80;92.60;;;;;;6130309;23;20001;-77
2022/12/09 04:41:11;;;;;;;1.98;1.10;;;2.80;92.60;;;;;;6138847;23;20005;-77
2022/12/09 04:43:36;;;;;;;1.90;1.17;;;2.70;92.60;;;;;;6183128;23;20394;-77
2022/12/09 04:46:05;;;;;;;2.05;1.00;;;2.70;92.70;;;;;;6183202;23;20025;-77
2022/12/09 04:48:31;;;;;;;1.63;0.70;;;2.60;92.70;;;;;;6128400;23;20025;-77
2022/12/09 04:50:58;;;;;;;1.67;0.90;;;2.60;92.80;;;;;;6132340;23;20001;-77
2022/12/09 04:53:24;;;;;;;2.05;1.10;;;2.50;92.70;;;;;;6182608;23;19997;-77
2022/12/09 04:56:00;;;;;;;1.85;0.85;;;2.50;92.80;;;;;;6183053;23;20033;-77
2022/12/09 04:58:25;;;;;;;2.50;1.10;;;2.50;92.80;;;;;;6132083;23;20025;-77
2022/12/09 05:00:51;;;;;;;2.15;1.05;;;2.50;92.90;;;;;;6183736;23;20333;-77
2022/12/09 05:03:17;;;;;;;2.17;0.93;;;2.50;92.80;;;;;;6184705;23;20011;-77
2022/12/09 05:05:42;;;;;;;1.88;0.90;;;2.50;92.80;;;;;;6133979;23;20381;-77
2022/12/09 05:08:08;;;;;;;2.17;1.10;;;2.50;92.80;;;;;;6136450;23;20323;-77
2022/12/09 05:10:34;;;;;;;1.73;0.90;;;2.50;92.80;;;;;;6134245;23;19998;-77
2022/12/09 05:12:59;;;;;;;2.47;1.20;;;2.60;92.70;;;;;;6185041;23;20028;-75
2022/12/09 05:15:25;;;;;;;1.70;0.93;;;2.60;92.70;;;;;;6184835;23;20005;-77
2022/12/09 05:17:51;;;;;;;2.03;0.98;;;2.60;92.60;;;;;;6184176;23;20024;-77
2022/12/09 05:20:17;;;;;;;2.08;1.00;;;2.70;92.60;;;;;;6184363;23;20029;-77
2022/12/09 05:22:42;;;;;;;1.45;0.85;;;2.70;92.60;;;;;;6131290;23;20010;-77
2022/12/09 05:25:09;;;;;;;1.65;0.90;;;2.80;92.60;;;;;;6183991;23;20013;-77
2022/12/09 05:27:34;;;;;;;1.42;0.82;;;2.70;92.50;;;;;;6155276;23;20400;-77
2022/12/09 05:30:00;;;;;;;1.52;0.82;;;2.80;92.50;;;;;;6183982;23;20079;-77
2022/12/09 05:32:27;;;;;;;1.42;0.68;;;2.80;92.50;;;;;;6183875;23;20005;-77
2022/12/09 05:34:53;;;;;;;1.25;0.80;;;2.80;92.50;;;;;;6158375;23;20438;-77
2022/12/09 05:37:19;;;;;;;1.65;0.95;;;2.80;92.50;;;;;;6184179;23;20001;-77
2022/12/09 05:39:45;;;;;;;1.20;0.70;;;2.80;92.40;;;;;;6184391;23;20058;-77
2022/12/09 05:42:10;;;;;;;2.45;1.00;;;2.80;92.40;;;;;;6157515;23;20095;-77
2022/12/09 05:44:36;;;;;;;2.25;1.25;;;2.80;92.40;;;;;;6183810;23;20159;-77
2022/12/09 05:47:01;;;;;;;2.05;0.90;;;2.70;92.40;;;;;;6132999;23;20092;-77
2022/12/09 05:49:28;;;;;;;1.70;0.85;;;2.80;92.40;;;;;;6143065;23;20443;-77
2022/12/09 05:51:53;;;;;;;1.38;0.80;;;2.90;92.40;;;;;;6153946;23;20329;-77
2022/12/09 05:54:19;;;;;;;1.67;0.82;;;2.80;92.40;;;;;;6184195;23;20036;-77
2022/12/09 05:56:45;;;;;;;2.33;1.13;;;2.80;92.40;;;;;;6183633;23;20303;-77
2022/12/09 05:59:10;;;;;;;2.30;1.10;;;2.80;92.40;;;;;;6184000;23;20342;-77
2022/12/09 06:01:36;;;;;;;2.00;0.90;;;2.70;92.30;;;;;;6184473;23;20052;-77
2022/12/09 06:04:02;;;;;;;1.70;0.80;;;2.70;92.30;;;;;;6184023;23;20036;-77
2022/12/09 06:06:29;;;;;;;2.30;1.20;;;2.70;92.40;;;;;;6184430;23;20322;-77
2022/12/09 06:08:57;;;;;;;1.45;0.90;;;2.70;92.40;;;;;;6157281;23;20504;-77
2022/12/09 06:11:23;;;;;;;1.20;0.80;;;2.70;92.40;;;;;;6184172;23;20087;-77
2022/12/09 06:13:50;;;;;;;2.05;1.02;;;2.60;92.50;;;;;;6183778;23;19997;-77
2022/12/09 06:16:18;;;;;;;1.75;0.90;;;2.50;92.50;;;;;;6184037;23;20005;-77
2022/12/09 06:18:44;;;;;;;1.92;1.05;;;2.50;92.50;;;;;;6157690;23;20003;-77
2022/12/09 06:21:11;;;;;;;2.25;1.23;;;2.50;92.60;;;;;;6183982;23;20009;-75
2022/12/09 06:23:39;;;;;;;2.05;0.93;;;2.50;92.60;;;;;;6184388;23;20005;-77
2022/12/09 06:26:06;;;;;;;2.28;1.20;;;2.40;92.50;;;;;;6133067;23;19997;-77
2022/12/09 06:28:32;;;;;;;2.60;1.10;;;2.40;92.60;;;;;;6157216;23;20020;-77
2022/12/09 06:30:58;;;;;;;1.98;1.10;;;2.40;92.50;;;;;;6157454;23;20040;-77
2022/12/09 06:33:24;;;;;;;2.45;1.10;;;2.40;92.50;;;;;;6184125;23;20445;-77
2022/12/09 06:35:50;;;;;;;1.98;1.10;;;2.30;92.60;;;;;;6184245;23;20001;-77
2022/12/09 06:38:15;;;;;;;2.30;1.05;;;2.20;92.60;;;;;;6184185;23;20005;-77
2022/12/09 06:40:42;;;;;;;2.75;1.08;;;2.20;92.60;;;;;;6184255;23;20013;-77
2022/12/09 06:43:09;;;;;;;1.73;1.00;;;2.10;92.70;;;;;;6134243;23;20005;-76
2022/12/09 06:45:36;;;;;;;1.25;0.75;;;2.10;92.70;;;;;;6154670;23;20335;-77
2022/12/09 06:48:02;;;;;;;1.70;1.00;;;2.00;92.70;;;;;;6135421;23;19997;-77
2022/12/09 06:50:28;;;;;;;2.53;1.10;;;2.00;92.80;;;;;;6183953;23;19997;-77
2022/12/09 06:52:53;;;;;;;2.40;1.20;;;1.90;92.80;;;;;;6130790;23;20013;-77
2022/12/09 06:55:19;;;;;;;2.05;1.00;;;1.80;92.80;;;;;;6184514;23;20448;-77
2022/12/09 06:57:45;;;;;;;2.55;1.20;;;1.70;92.80;;;;;;6181218;23;20329;-77
2022/12/09 07:00:12;;;;;;;2.58;1.10;;;1.70;92.80;;;;;;6183701;23;20052;-76
2022/12/09 07:02:38;;;;;;;2.15;1.05;;;1.70;92.90;;;;;;6184397;23;20005;-76
2022/12/09 07:05:04;;;;;;;1.98;1.10;;;1.60;92.90;;;;;;6157290;23;20119;-76
2022/12/09 07:07:30;;;;;;;2.42;1.27;;;1.50;92.90;;;;;;6133417;23;20088;-76
2022/12/09 07:09:56;;;;;;;2.53;1.40;;;1.50;93.00;;;;;;6132890;23;20033;-76
2022/12/09 07:12:21;;;;;;;1.75;0.90;;;1.50;93.00;;;;;;6184114;23;19997;-76
2022/12/09 07:14:47;;;;;;;2.22;1.10;;;1.40;93.00;;;;;;6183528;23;20013;-75
2022/12/09 07:17:16;;;;;;;2.13;1.10;;;1.40;93.00;;;;;;6184397;23;20055;-76
2022/12/09 07:19:42;;;;;;;1.40;0.70;;;1.30;93.00;;;;;;6162488;23;20008;-76
2022/12/09 07:22:07;;;;;;;3.05;1.10;;;1.30;93.00;;;;;;6187663;23;20005;-76
2022/12/09 07:24:33;;;;;;;1.40;0.90;;;1.30;93.00;;;;;;6140986;23;20120;-76
2022/12/09 07:26:59;;;;;;;2.00;0.85;;;1.20;93.00;;;;;;6189194;23;19997;-76
2022/12/09 07:29:24;;;;;;;2.85;1.20;;;1.20;93.10;;;;;;6190138;23;20032;-77
2022/12/09 07:31:50;;;;;;;2.22;0.95;;;1.20;93.10;;;;;;6137839;23;20028;-75
2022/12/09 07:34:15;;;;;;;1.58;0.75;;;1.10;93.00;;;;;;6188960;23;20012;-76
2022/12/09 07:36:41;;;;;;;2.25;1.08;;;1.10;93.00;;;;;;6187281;23;20111;-75
2022/12/09 07:39:11;;;;;;;2.45;1.30;;;1.20;93.10;;;;;;6183623;23;20448;-75
2022/12/09 07:41:38;;;;;;;2.28;1.00;;;1.00;93.00;;;;;;6139743;23;20032;-76
2022/12/09 07:44:06;;;;;;;1.58;1.13;;;0.90;93.00;;;;;;6181367;23;20025;-76
2022/12/09 07:46:32;;;;;;;1.80;1.10;;;1.00;93.00;;;;;;6130387;23;20022;-74
2022/12/09 07:49:00;;;;;;;2.53;1.00;;;0.90;93.00;;;;;;6133089;23;20080;-74
2022/12/09 07:51:36;;;;;;;2.40;1.10;;;0.90;93.00;;;;;;6173849;23;20446;-74
2022/12/09 07:54:02;;;;;;;2.38;1.08;;;0.90;93.10;;;;;;6164892;23;20009;-75
2022/12/09 07:56:28;;;;;;;2.15;1.05;;;0.90;93.10;;;;;;6183507;23;20294;-75
2022/12/09 07:58:55;;;;;;;1.95;1.00;;;0.90;93.10;;;;;;6106454;23;20049;-75
2022/12/09 08:01:26;;;;;;;1.42;0.90;;;0.90;93.10;;;;;;6105813;23;20085;-74
2022/12/09 08:03:52;;;;;;;3.13;1.15;;;0.90;93.10;;;;;;6107963;23;20001;-75
2022/12/09 08:06:27;;;;;;;1.85;1.10;;;0.90;93.00;;;;;;6183473;23;20013;-75
2022/12/09 08:08:55;;;;;;;3.00;1.15;;;1.00;93.00;;;;;;6060675;23;20011;-75
2022/12/09 08:12:07;;;;;;;2.20;1.00;;;1.00;93.00;;;;;;6063781;23;20140;-74
2022/12/09 08:15:21;;;;;;;2.35;1.20;;;1.00;92.90;;;;;;5958300;23;20051;-75
2022/12/09 08:18:28;;;;;;;3.15;1.30;;;1.10;92.90;;;;;;5949104;24;20013;-74
2022/12/09 08:21:31;;;;;;;2.47;1.00;;;1.10;92.90;;;;;;5918334;24;20021;-75
2022/12/09 08:52:27;;;;;;;1.83;0.70;;;1.60;92.40;;;;;;5839026;24;20075;-77
2022/12/09 09:13:15;;;;;;;2.42;1.17;;;2.10;92.20;;;;;;5920778;24;20108;-75
2022/12/09 09:15:56;;;;;;;2.67;1.13;;;2.10;92.10;;;;;;5928037;24;20028;-78
2022/12/09 09:18:25;;;;;;;2.08;1.10;;;2.10;92.10;;;;;;5960118;24;20026;-77
2022/12/09 09:20:52;;;;;;;1.75;0.80;;;2.20;92.10;;;;;;5996054;23;20016;-77
2022/12/09 09:23:23;;;;;;;2.00;1.10;;;2.20;92.10;;;;;;6051164;23;20014;-76
2022/12/09 09:26:08;;;;;;;2.13;1.02;;;2.30;92.10;;;;;;6029084;23;20023;-76
2022/12/09 09:29:04;;;;;;;1.73;0.65;;;2.30;92.10;;;;;;6041059;23;20055;-78
2022/12/09 09:35:33;;;;;;;2.33;1.00;;;2.40;92.10;;;;;;6004988;23;20016;-77
2022/12/09 09:38:46;;;;;;;2.42;1.10;;;2.40;92.10;;;;;;5982851;23;20020;-77
2022/12/09 09:41:55;;;;;;;2.60;1.20;;;2.50;92.00;;;;;;5948892;24;20457;-77
2022/12/09 09:44:45;;;;;;;2.10;1.15;;;2.40;92.00;;;;;;5921102;24;20025;-77
2022/12/09 09:47:35;;;;;;;1.40;0.60;;;2.50;92.00;;;;;;5971571;24;20062;-76
2022/12/09 09:50:15;;;;;;;2.80;0.88;;;2.60;92.00;;;;;;5983667;23;20042;-76
2022/12/09 09:52:41;;;;;;;1.63;0.95;;;2.70;91.90;;;;;;6035214;23;20037;-76
2022/12/09 09:55:25;;;;;;;1.77;0.85;;;2.90;92.00;;;;;;6035874;23;20083;-79
2022/12/09 09:58:09;;;;;;;2.13;1.00;;;2.80;91.90;;;;;;6011576;23;20369;-77
2022/12/09 10:00:55;;;;;;;2.33;1.10;;;2.80;91.90;;;;;;6060038;23;20118;-77
2022/12/09 10:03:36;;;;;;;2.33;0.95;;;2.80;91.80;;;;;;6092821;23;20010;-77
2022/12/09 10:06:15;;;;;;;1.60;0.90;;;2.90;91.80;;;;;;6146287;23;20017;-76
2022/12/09 10:08:54;;;;;;;1.98;1.08;;;2.90;91.80;;;;;;6183263;23;20040;-77
2022/12/09 10:11:35;;;;;;;2.80;1.20;;;2.90;91.80;;;;;;6133147;23;20001;-77
2022/12/09 10:14:29;;;;;;;2.60;1.05;;;3.00;91.80;;;;;;6153850;23;20020;-78
2022/12/09 10:21:37;;;;;;;2.58;1.10;;;3.00;91.80;;;;;;6177621;23;20024;-78
2022/12/09 10:24:33;;;;;;;2.25;1.10;;;3.10;91.70;;;;;;6036585;23;20456;-78
2022/12/09 10:31:10;;;;;;;2.42;1.13;;;3.10;91.70;;;;;;6012117;23;21193;-78
2022/12/09 10:47:45;;;;;;;2.10;1.10;;;3.10;91.80;;;;;;5895257;24;20113;-79
2022/12/09 10:54:16;;;;;;;1.50;1.10;;;3.20;91.70;;;;;;5733241;25;20032;-78
2022/12/09 11:04:49;;;;;;;1.60;0.90;;;3.50;91.50;;;;;;5601985;25;20026;-79
2022/12/09 11:07:24;;;;;;;2.10;1.10;;;3.50;91.50;;;;;;5592350;25;20039;-79
2022/12/09 11:32:29;;;;;;;2.05;1.10;;;3.70;91.30;;;;;;6089806;23;20038;-77
2022/12/09 11:35:05;;;;;;;3.30;1.50;;;3.70;91.30;;;;;;5986941;23;20079;-77
2022/12/09 11:37:32;;;;;;;1.52;0.95;;;3.80;91.30;;;;;;6005967;23;20035;-77
2022/12/09 11:40:17;;;;;;;2.75;1.27;;;3.80;91.30;;;;;;5954152;24;20016;-77
2022/12/09 11:42:51;;;;;;;2.97;1.65;;;3.80;91.20;;;;;;5926014;24;20052;-77
2022/12/09 11:45:32;;;;;;;4.03;1.83;;;3.80;91.20;;;;;;5839946;24;20452;-78
2022/12/09 11:48:06;;;;;;;3.90;1.70;;;3.80;91.20;;;;;;5841347;24;20018;-77
2022/12/09 11:50:35;;;;;;;3.80;1.70;;;3.70;91.30;;;;;;5868076;24;20014;-77
2022/12/09 11:53:32;;;;;;;3.70;1.75;;;3.60;91.30;;;;;;5866529;24;20361;-77
2022/12/09 11:56:07;;;;;;;3.35;1.60;;;3.60;91.40;;;;;;5869011;24;20432;-78
2022/12/09 11:58:56;;;;;;;4.00;1.83;;;3.60;91.40;;;;;;5868455;24;20021;-77
2022/12/09 12:02:12;;;;;;;3.58;1.73;;;3.60;91.40;;;;;;5868698;24;20317;-78
2022/12/09 12:13:20;;;;;;;3.03;1.58;;;3.60;91.60;;;;;;6003977;23;20353;-79
2022/12/09 12:16:34;;;;;;;4.82;1.40;;;3.60;91.40;;;;;;5933215;24;20122;-78
2022/12/09 12:19:27;;;;;;;3.75;1.50;;;3.50;91.40;;;;;;5986067;23;20015;-77
2022/12/09 12:26:07;;;;;;;2.83;1.52;;;3.60;91.40;;;;;;6033323;23;20067;-78
2022/12/09 12:28:47;;;;;;;2.75;1.40;;;3.60;91.40;;;;;;6012140;23;20048;-77
2022/12/09 12:31:47;;;;;;;3.22;1.50;;;3.60;91.30;;;;;;6034713;23;20015;-77
2022/12/09 12:34:37;;;;;;;2.75;1.38;;;3.60;91.40;;;;;;6010574;23;20007;-76
2022/12/09 12:37:18;;;;;;;2.97;1.30;;;3.60;91.40;;;;;;6010178;23;20067;-76
2022/12/09 12:39:58;;;;;;;1.92;1.05;;;3.70;91.40;;;;;;6018156;23;20015;-77
2022/12/09 12:49:08;;;;;;;1.38;1.00;;;3.90;91.40;;;;;;6153375;23;20088;-77
2022/12/09 12:51:50;;;;;;;2.95;1.38;;;3.80;91.30;;;;;;6153107;23;20036;-77
2022/12/09 12:54:41;;;;;;;2.70;1.20;;;3.80;91.20;;;;;;6153540;23;20004;-78
2022/12/09 12:57:21;;;;;;;2.33;1.40;;;3.90;91.30;;;;;;6154262;23;20033;-77
2022/12/09 13:00:15;;;;;;;3.65;1.30;;;3.70;91.30;;;;;;6127781;23;20009;-77
2022/12/09 13:03:20;;;;;;;2.95;1.27;;;3.70;91.40;;;;;;6152496;23;20036;-77
2022/12/09 13:06:12;;;;;;;2.03;1.00;;;3.70;91.30;;;;;;6121406;23;20026;-77
2022/12/09 13:09:12;;;;;;;3.75;1.38;;;3.70;91.30;;;;;;6134847;23;20014;-78
2022/12/09 13:16:31;;;;;;;2.00;1.00;;;3.70;91.40;;;;;;6143071;23;20033;-79
2022/12/09 13:26:37;;;;;;;2.30;1.23;;;3.70;91.30;;;;;;5932413;23;20089;-75
2022/12/09 13:36:55;;;;;;;2.97;1.40;;;3.40;91.40;;;;;;5949391;24;20141;-78
2022/12/09 13:39:54;;;;;;;3.72;1.33;;;3.30;91.40;;;;;;5928786;24;20014;-78
2022/12/09 13:42:55;;;;;;;2.33;1.30;;;3.40;91.40;;;;;;5968440;24;20019;-77
2022/12/09 13:45:38;;;;;;;2.83;1.30;;;3.30;91.40;;;;;;5979104;24;20016;-78
2022/12/09 13:48:43;;;;;;;3.15;1.45;;;3.40;91.40;;;;;;5979148;24;20082;-79
2022/12/09 13:51:09;;;;;;;3.20;1.20;;;3.30;91.40;;;;;;5972007;24;20004;-78
2022/12/09 13:53:40;;;;;;;2.92;1.00;;;3.20;91.40;;;;;;5979470;24;20008;-77
2022/12/09 13:56:18;;;;;;;3.05;1.50;;;3.30;91.40;;;;;;5978745;24;20020;-77
2022/12/09 13:59:07;;;;;;;1.73;1.10;;;3.30;91.40;;;;;;6002894;24;20020;-78
2022/12/09 14:14:43;;;;;;;2.05;0.90;;;3.40;91.30;;;;;;5991842;24;20016;-77
2022/12/09 15:17:44;;;;;;;2.40;1.35;;;2.80;91.10;;;;;;5996651;23;20062;-76
2022/12/09 15:28:55;;;;;;;2.33;1.30;;;2.60;91.10;;;;;;5996254;23;20056;-74
2022/12/09 15:50:58;;;;;;;1.80;0.95;;;2.40;91.40;;;;;;5978527;23;20053;-75
2022/12/09 16:00:23;;;;;;;2.88;1.30;;;2.30;91.40;;;;;;5978224;23;20058;-74
2022/12/09 16:24:49;;;;;;;1.45;0.80;;;2.00;91.40;;;;;;5860139;24;20063;-76
2022/12/09 16:38:47;;;;;;;2.13;0.90;;;1.80;91.50;;;;;;5765476;24;20162;-76
2022/12/09 16:41:12;;;;;;;1.58;0.90;;;1.90;91.60;;;;;;5800338;24;20026;-73
2022/12/09 16:43:53;;;;;;;1.65;0.90;;;1.70;91.50;;;;;;5771714;24;20045;-76
2022/12/09 16:46:36;;;;;;;0.90;0.63;;;1.70;91.60;;;;;;5791731;24;20102;-74
2022/12/09 16:52:56;;;;;;;2.65;1.13;;;1.60;91.60;;;;;;5746484;24;20020;-75
2022/12/09 16:55:54;;;;;;;2.17;1.00;;;1.50;91.70;;;;;;5663634;25;20363;-75
2022/12/09 17:20:47;;;;;;;1.95;0.90;;;1.20;91.80;;;;;;5895058;24;20083;-75
2022/12/09 17:23:16;;;;;;;2.70;1.13;;;1.10;91.70;;;;;;5953734;23;20015;-77
2022/12/09 17:25:41;;;;;;;2.53;1.10;;;1.20;91.80;;;;;;5983223;23;20019;-75
2022/12/09 17:28:07;;;;;;;2.60;1.10;;;1.10;91.80;;;;;;6005758;23;20365;-75
2022/12/09 17:30:37;;;;;;;2.25;1.30;;;1.10;91.80;;;;;;6028151;23;20003;-74
2022/12/09 17:33:03;;;;;;;2.60;1.30;;;1.10;91.90;;;;;;6035001;23;20008;-74
2022/12/09 17:35:32;;;;;;;1.83;0.93;;;1.00;91.90;;;;;;6104261;23;20041;-74
2022/12/09 17:37:58;;;;;;;1.95;0.90;;;0.90;91.90;;;;;;6151279;23;20006;-74
2022/12/09 17:40:23;;;;;;;2.42;1.05;;;0.90;91.90;;;;;;6152839;23;20001;-74
2022/12/09 17:42:49;;;;;;;2.13;1.05;;;0.90;91.90;;;;;;6152169;23;20010;-74
2022/12/09 17:45:15;;;;;;;2.25;1.30;;;0.90;91.90;;;;;;6151355;23;20016;-74
2022/12/09 17:47:40;;;;;;;2.35;1.13;;;0.90;91.90;;;;;;6152676;23;20012;-74
2022/12/09 17:50:06;;;;;;;1.98;1.00;;;0.80;91.90;;;;;;6152970;23;20002;-74
2022/12/09 17:52:32;;;;;;;1.75;1.00;;;0.90;91.90;;;;;;6152960;23;20314;-74
2022/12/09 17:54:58;;;;;;;2.35;1.02;;;0.80;91.80;;;;;;6152524;23;20469;-74
2022/12/09 17:57:23;;;;;;;3.03;1.23;;;0.70;91.80;;;;;;6152653;23;20382;-74
2022/12/09 17:59:49;;;;;;;2.22;1.20;;;0.70;91.90;;;;;;6151116;23;20055;-74
2022/12/09 18:02:14;;;;;;;2.95;1.25;;;0.80;91.90;;;;;;6152450;23;20017;-74
2022/12/09 18:04:40;;;;;;;2.05;1.00;;;0.70;91.90;;;;;;6152637;23;20014;-74
2022/12/09 18:07:06;;;;;;;2.47;1.08;;;0.70;92.00;;;;;;6152839;23;20109;-74
2022/12/09 18:09:31;;;;;;;2.28;1.20;;;0.60;92.00;;;;;;6151164;23;20025;-74
2022/12/09 18:11:57;;;;;;;2.40;0.93;;;0.60;92.00;;;;;;6149787;23;20059;-74
2022/12/09 18:14:24;;;;;;;1.58;0.73;;;0.60;92.00;;;;;;6151984;23;20001;-74
2022/12/09 18:16:49;;;;;;;2.47;1.30;;;0.50;92.00;;;;;;6151947;23;20403;-74
2022/12/09 18:19:19;;;;;;;3.72;0.90;;;0.50;92.00;;;;;;6151479;23;20088;-74
2022/12/09 18:21:45;;;;;;;1.77;1.17;;;0.50;92.00;;;;;;6151840;23;20017;-74
2022/12/09 18:24:11;;;;;;;1.88;1.00;;;0.40;92.00;;;;;;6150071;23;19997;-74
2022/12/09 18:26:36;;;;;;;3.00;1.20;;;0.50;92.00;;;;;;6150134;23;20012;-75
2022/12/09 18:29:02;;;;;;;2.67;1.30;;;0.50;92.00;;;;;;6152682;23;20044;-74
2022/12/09 18:31:28;;;;;;;1.88;1.15;;;0.40;92.00;;;;;;6152492;23;19998;-74
2022/12/09 18:33:54;;;;;;;3.25;1.35;;;0.30;92.00;;;;;;6153398;23;20381;-73
2022/12/09 18:36:23;;;;;;;2.17;1.20;;;0.30;92.00;;;;;;6152209;23;20002;-73
2022/12/09 18:38:49;;;;;;;1.73;1.00;;;0.30;92.00;;;;;;6154321;23;20051;-74
2022/12/09 18:41:17;;;;;;;2.22;1.08;;;0.20;92.00;;;;;;6153718;23;20002;-73